sensor_id;sensor_type;location;lat;lon;timestamp;temperature;humidity
74540;SHT31;66042;51.090;-115.340;2023-02-03T00:02:07;4.62;30.24
74540;SHT31;66042;51.090;-115.340;2023-02-03T00:04:35;4.55;29.20
74540;SHT31;66042;51.090;-115.340;2023-02-03T00:07:01;4.54;29.30
74540;SHT31;66042;51.090;-115.340;2023-02-03T00:09:29;4.53;29.28
74540;SHT31;66042;51.090;-115.340;2023-02-03T00:11:56;4.53;29.09
74540;SHT31;66042;51.090;-115.340;2023-02-03T00:14:23;4.51;29.97
74540;SHT31;66042;51.090;-115.340;2023-02-03T00:16:50;4.47;29.56
74540;SHT31;66042;51.090;-115.340;2023-02-03T00:19:17;4.47;28.86
74540;SHT31;66042;51.090;-115.340;2023-02-03T00:21:43;4.50;28.38
74540;SHT31;66042;51.090;-115.340;2023-02-03T00:24:10;4.50;28.73
74540;SHT31;66042;51.090;-115.340;2023-02-03T00:26:41;4.51;28.50
74540;SHT31;66042;51.090;-115.340;2023-02-03T00:29:08;4.48;28.92
74540;SHT31;66042;51.090;-115.340;2023-02-03T00:31:36;4.44;29.42
74540;SHT31;66042;51.090;-115.340;2023-02-03T00:34:03;4.37;29.26
74540;SHT31;66042;51.090;-115.340;2023-02-03T00:36:30;4.36;28.92
74540;SHT31;66042;51.090;-115.340;2023-02-03T00:38:58;4.32;28.81
74540;SHT31;66042;51.090;-115.340;2023-02-03T00:41:27;4.30;28.37
74540;SHT31;66042;51.090;-115.340;2023-02-03T00:43:59;4.30;28.65
74540;SHT31;66042;51.090;-115.340;2023-02-03T00:46:25;4.29;28.59
74540;SHT31;66042;51.090;-115.340;2023-02-03T00:48:53;4.25;28.54
74540;SHT31;66042;51.090;-115.340;2023-02-03T00:51:20;4.25;28.10
74540;SHT31;66042;51.090;-115.340;2023-02-03T00:53:47;4.24;28.64
74540;SHT31;66042;51.090;-115.340;2023-02-03T00:56:14;4.19;28.66
74540;SHT31;66042;51.090;-115.340;2023-02-03T00:58:41;4.16;28.03
74540;SHT31;66042;51.090;-115.340;2023-02-03T01:01:08;4.17;28.13
74540;SHT31;66042;51.090;-115.340;2023-02-03T01:03:35;4.13;29.15
74540;SHT31;66042;51.090;-115.340;2023-02-03T01:08:42;3.98;28.99
74540;SHT31;66042;51.090;-115.340;2023-02-03T01:11:14;3.96;28.24
74540;SHT31;66042;51.090;-115.340;2023-02-03T01:13:44;3.93;29.63
74540;SHT31;66042;51.090;-115.340;2023-02-03T01:16:12;3.85;28.43
74540;SHT31;66042;51.090;-115.340;2023-02-03T01:18:42;3.88;27.20
74540;SHT31;66042;51.090;-115.340;2023-02-03T01:21:14;3.91;28.05
74540;SHT31;66042;51.090;-115.340;2023-02-03T01:23:45;3.86;29.06
74540;SHT31;66042;51.090;-115.340;2023-02-03T01:26:14;3.83;28.43
74540;SHT31;66042;51.090;-115.340;2023-02-03T01:28:43;3.81;27.40
74540;SHT31;66042;51.090;-115.340;2023-02-03T01:31:19;3.86;27.17
74540;SHT31;66042;51.090;-115.340;2023-02-03T01:33:53;3.84;28.24
74540;SHT31;66042;51.090;-115.340;2023-02-03T01:36:22;3.82;27.92
74540;SHT31;66042;51.090;-115.340;2023-02-03T01:38:51;3.80;28.05
74540;SHT31;66042;51.090;-115.340;2023-02-03T01:41:19;3.81;26.74
74540;SHT31;66042;51.090;-115.340;2023-02-03T01:43:53;3.89;26.88
74540;SHT31;66042;51.090;-115.340;2023-02-03T01:46:27;3.93;26.36
74540;SHT31;66042;51.090;-115.340;2023-02-03T01:49:10;3.97;26.88
74540;SHT31;66042;51.090;-115.340;2023-02-03T01:51:46;3.96;26.48
74540;SHT31;66042;51.090;-115.340;2023-02-03T01:54:20;4.00;27.84
74540;SHT31;66042;51.090;-115.340;2023-02-03T01:56:56;4.04;26.88
74540;SHT31;66042;51.090;-115.340;2023-02-03T01:59:29;4.05;25.68
74540;SHT31;66042;51.090;-115.340;2023-02-03T02:01:59;4.06;26.38
74540;SHT31;66042;51.090;-115.340;2023-02-03T02:04:28;4.02;26.38
74540;SHT31;66042;51.090;-115.340;2023-02-03T02:07:13;3.96;27.44
74540;SHT31;66042;51.090;-115.340;2023-02-03T02:09:40;3.90;26.39
74540;SHT31;66042;51.090;-115.340;2023-02-03T02:12:10;3.93;25.76
74540;SHT31;66042;51.090;-115.340;2023-02-03T02:14:38;3.93;26.51
74540;SHT31;66042;51.090;-115.340;2023-02-03T02:17:17;3.89;26.39
74540;SHT31;66042;51.090;-115.340;2023-02-03T02:36:43;3.64;29.88
74540;SHT31;66042;51.090;-115.340;2023-02-03T02:42:33;3.54;28.09
74540;SHT31;66042;51.090;-115.340;2023-02-03T02:45:28;3.47;28.51
74540;SHT31;66042;51.090;-115.340;2023-02-03T02:50:54;3.42;26.94
74540;SHT31;66042;51.090;-115.340;2023-02-03T02:53:24;3.46;27.18
74540;SHT31;66042;51.090;-115.340;2023-02-03T02:55:56;3.48;26.98
74540;SHT31;66042;51.090;-115.340;2023-02-03T02:58:27;3.50;26.84
74540;SHT31;66042;51.090;-115.340;2023-02-03T03:00:58;3.49;28.25
74540;SHT31;66042;51.090;-115.340;2023-02-03T03:03:27;3.41;28.31
74540;SHT31;66042;51.090;-115.340;2023-02-03T03:05:55;3.39;27.49
74540;SHT31;66042;51.090;-115.340;2023-02-03T03:08:41;3.38;27.66
74540;SHT31;66042;51.090;-115.340;2023-02-03T03:11:18;3.44;26.78
74540;SHT31;66042;51.090;-115.340;2023-02-03T03:13:47;3.49;27.35
74540;SHT31;66042;51.090;-115.340;2023-02-03T03:16:21;3.47;27.66
74540;SHT31;66042;51.090;-115.340;2023-02-03T03:18:58;3.46;26.96
74540;SHT31;66042;51.090;-115.340;2023-02-03T03:21:33;3.46;26.94
74540;SHT31;66042;51.090;-115.340;2023-02-03T03:24:11;3.45;26.79
74540;SHT31;66042;51.090;-115.340;2023-02-03T03:26:48;3.49;26.18
74540;SHT31;66042;51.090;-115.340;2023-02-03T03:29:37;3.55;26.63
74540;SHT31;66042;51.090;-115.340;2023-02-03T03:32:07;3.56;26.78
74540;SHT31;66042;51.090;-115.340;2023-02-03T03:34:35;3.54;26.78
74540;SHT31;66042;51.090;-115.340;2023-02-03T03:37:05;3.53;27.36
74540;SHT31;66042;51.090;-115.340;2023-02-03T03:40:20;3.52;27.06
74540;SHT31;66042;51.090;-115.340;2023-02-03T03:43:01;3.53;26.94
74540;SHT31;66042;51.090;-115.340;2023-02-03T03:45:40;3.52;27.30
74540;SHT31;66042;51.090;-115.340;2023-02-03T03:48:38;3.48;27.33
74540;SHT31;66042;51.090;-115.340;2023-02-03T03:54:06;3.45;27.18
74540;SHT31;66042;51.090;-115.340;2023-02-03T03:57:00;3.47;27.12
74540;SHT31;66042;51.090;-115.340;2023-02-03T03:59:51;3.51;26.56
74540;SHT31;66042;51.090;-115.340;2023-02-03T04:02:19;3.54;27.39
74540;SHT31;66042;51.090;-115.340;2023-02-03T04:04:48;3.53;27.47
74540;SHT31;66042;51.090;-115.340;2023-02-03T04:07:16;3.49;27.59
74540;SHT31;66042;51.090;-115.340;2023-02-03T04:09:44;3.41;27.83
74540;SHT31;66042;51.090;-115.340;2023-02-03T04:12:17;3.39;27.80
74540;SHT31;66042;51.090;-115.340;2023-02-03T04:14:50;3.33;28.78
74540;SHT31;66042;51.090;-115.340;2023-02-03T04:17:17;3.19;29.35
74540;SHT31;66042;51.090;-115.340;2023-02-03T04:19:46;3.04;29.90
74540;SHT31;66042;51.090;-115.340;2023-02-03T04:22:13;2.87;30.84
74540;SHT31;66042;51.090;-115.340;2023-02-03T04:24:40;2.72;30.90
74540;SHT31;66042;51.090;-115.340;2023-02-03T04:27:07;2.61;30.91
74540;SHT31;66042;51.090;-115.340;2023-02-03T04:29:34;2.54;31.20
74540;SHT31;66042;51.090;-115.340;2023-02-03T04:32:01;2.46;31.16
74540;SHT31;66042;51.090;-115.340;2023-02-03T04:34:28;2.41;31.45
74540;SHT31;66042;51.090;-115.340;2023-02-03T04:36:55;2.32;31.81
74540;SHT31;66042;51.090;-115.340;2023-02-03T04:39:22;2.26;31.46
74540;SHT31;66042;51.090;-115.340;2023-02-03T04:41:49;2.33;30.45
74540;SHT31;66042;51.090;-115.340;2023-02-03T04:44:16;2.43;30.29
74540;SHT31;66042;51.090;-115.340;2023-02-03T04:46:43;2.46;30.52
74540;SHT31;66042;51.090;-115.340;2023-02-03T04:49:10;2.50;30.36
74540;SHT31;66042;51.090;-115.340;2023-02-03T04:51:37;2.55;30.00
74540;SHT31;66042;51.090;-115.340;2023-02-03T04:54:04;2.59;29.84
74540;SHT31;66042;51.090;-115.340;2023-02-03T04:56:31;2.71;29.13
74540;SHT31;66042;51.090;-115.340;2023-02-03T04:58:58;2.80;29.76
74540;SHT31;66042;51.090;-115.340;2023-02-03T05:01:27;2.85;29.28
74540;SHT31;66042;51.090;-115.340;2023-02-03T05:03:54;2.88;29.73
74540;SHT31;66042;51.090;-115.340;2023-02-03T05:06:22;2.89;29.34
74540;SHT31;66042;51.090;-115.340;2023-02-03T05:08:51;2.84;30.77
74540;SHT31;66042;51.090;-115.340;2023-02-03T05:11:18;2.74;31.17
74540;SHT31;66042;51.090;-115.340;2023-02-03T05:13:47;2.61;31.71
74540;SHT31;66042;51.090;-115.340;2023-02-03T05:16:13;2.48;31.94
74540;SHT31;66042;51.090;-115.340;2023-02-03T05:18:40;2.37;32.07
74540;SHT31;66042;51.090;-115.340;2023-02-03T05:21:08;2.30;31.85
74540;SHT31;66042;51.090;-115.340;2023-02-03T05:23:34;2.21;32.51
74540;SHT31;66042;51.090;-115.340;2023-02-03T05:26:01;2.15;32.33
74540;SHT31;66042;51.090;-115.340;2023-02-03T05:28:29;2.09;32.45
74540;SHT31;66042;51.090;-115.340;2023-02-03T05:30:59;2.04;32.56
74540;SHT31;66042;51.090;-115.340;2023-02-03T05:33:27;1.97;33.24
74540;SHT31;66042;51.090;-115.340;2023-02-03T05:35:55;1.88;33.30
74540;SHT31;66042;51.090;-115.340;2023-02-03T05:38:22;1.81;33.18
74540;SHT31;66042;51.090;-115.340;2023-02-03T05:40:50;1.78;32.94
74540;SHT31;66042;51.090;-115.340;2023-02-03T05:43:37;1.84;33.23
74540;SHT31;66042;51.090;-115.340;2023-02-03T05:46:04;1.82;33.46
74540;SHT31;66042;51.090;-115.340;2023-02-03T05:48:32;1.84;33.21
74540;SHT31;66042;51.090;-115.340;2023-02-03T05:51:00;1.87;33.35
74540;SHT31;66042;51.090;-115.340;2023-02-03T05:53:27;1.87;33.31
74540;SHT31;66042;51.090;-115.340;2023-02-03T05:55:54;1.92;33.44
74540;SHT31;66042;51.090;-115.340;2023-02-03T05:58:21;1.93;33.70
74540;SHT31;66042;51.090;-115.340;2023-02-03T06:00:48;1.91;33.76
74540;SHT31;66042;51.090;-115.340;2023-02-03T06:03:14;1.87;34.34
74540;SHT31;66042;51.090;-115.340;2023-02-03T06:05:41;1.87;34.30
74540;SHT31;66042;51.090;-115.340;2023-02-03T06:08:09;1.97;34.33
74540;SHT31;66042;51.090;-115.340;2023-02-03T06:10:36;2.06;34.01
74540;SHT31;66042;51.090;-115.340;2023-02-03T06:13:09;2.06;34.12
74540;SHT31;66042;51.090;-115.340;2023-02-03T06:15:40;2.05;34.17
74540;SHT31;66042;51.090;-115.340;2023-02-03T06:18:08;2.01;34.21
74540;SHT31;66042;51.090;-115.340;2023-02-03T06:20:35;1.99;34.57
74540;SHT31;66042;51.090;-115.340;2023-02-03T06:23:02;1.93;35.22
74540;SHT31;66042;51.090;-115.340;2023-02-03T06:25:29;1.92;35.39
74540;SHT31;66042;51.090;-115.340;2023-02-03T06:27:57;1.89;34.89
74540;SHT31;66042;51.090;-115.340;2023-02-03T06:30:24;1.83;35.33
74540;SHT31;66042;51.090;-115.340;2023-02-03T06:32:51;1.78;35.52
74540;SHT31;66042;51.090;-115.340;2023-02-03T06:35:18;1.78;35.66
74540;SHT31;66042;51.090;-115.340;2023-02-03T06:37:45;1.79;36.30
74540;SHT31;66042;51.090;-115.340;2023-02-03T06:40:12;1.78;36.63
74540;SHT31;66042;51.090;-115.340;2023-02-03T06:42:39;1.92;37.28
74540;SHT31;66042;51.090;-115.340;2023-02-03T06:45:09;2.14;37.48
74540;SHT31;66042;51.090;-115.340;2023-02-03T06:47:38;2.42;36.95
74540;SHT31;66042;51.090;-115.340;2023-02-03T06:50:06;2.53;36.39
74540;SHT31;66042;51.090;-115.340;2023-02-03T06:52:35;2.58;36.09
74540;SHT31;66042;51.090;-115.340;2023-02-03T06:55:03;2.57;36.13
74540;SHT31;66042;51.090;-115.340;2023-02-03T06:57:31;2.57;36.41
74540;SHT31;66042;51.090;-115.340;2023-02-03T06:59:58;2.61;36.58
74540;SHT31;66042;51.090;-115.340;2023-02-03T07:02:25;2.67;36.43
74540;SHT31;66042;51.090;-115.340;2023-02-03T07:04:52;2.70;36.60
74540;SHT31;66042;51.090;-115.340;2023-02-03T07:07:19;2.70;36.44
74540;SHT31;66042;51.090;-115.340;2023-02-03T07:09:46;2.74;36.39
74540;SHT31;66042;51.090;-115.340;2023-02-03T07:12:12;2.75;36.07
74540;SHT31;66042;51.090;-115.340;2023-02-03T07:14:39;2.74;36.26
74540;SHT31;66042;51.090;-115.340;2023-02-03T07:17:06;2.65;36.88
74540;SHT31;66042;51.090;-115.340;2023-02-03T07:19:33;2.57;36.97
74540;SHT31;66042;51.090;-115.340;2023-02-03T07:22:00;2.51;36.92
74540;SHT31;66042;51.090;-115.340;2023-02-03T07:24:27;2.43;37.41
74540;SHT31;66042;51.090;-115.340;2023-02-03T07:26:54;2.38;37.57
74540;SHT31;66042;51.090;-115.340;2023-02-03T07:29:21;2.40;37.50
74540;SHT31;66042;51.090;-115.340;2023-02-03T07:31:48;2.36;37.62
74540;SHT31;66042;51.090;-115.340;2023-02-03T07:34:15;2.30;37.82
74540;SHT31;66042;51.090;-115.340;2023-02-03T07:36:41;2.23;37.81
74540;SHT31;66042;51.090;-115.340;2023-02-03T07:39:08;2.19;37.15
74540;SHT31;66042;51.090;-115.340;2023-02-03T07:41:36;2.19;37.74
74540;SHT31;66042;51.090;-115.340;2023-02-03T07:44:02;2.19;37.59
74540;SHT31;66042;51.090;-115.340;2023-02-03T07:46:30;2.27;37.42
74540;SHT31;66042;51.090;-115.340;2023-02-03T07:48:57;2.27;37.62
74540;SHT31;66042;51.090;-115.340;2023-02-03T07:51:24;2.24;37.51
74540;SHT31;66042;51.090;-115.340;2023-02-03T07:53:51;2.21;37.27
74540;SHT31;66042;51.090;-115.340;2023-02-03T07:56:18;2.17;37.81
74540;SHT31;66042;51.090;-115.340;2023-02-03T07:58:45;2.11;37.89
74540;SHT31;66042;51.090;-115.340;2023-02-03T08:01:13;2.10;37.55
74540;SHT31;66042;51.090;-115.340;2023-02-03T08:03:42;2.14;37.44
74540;SHT31;66042;51.090;-115.340;2023-02-03T08:06:09;2.23;37.55
74540;SHT31;66042;51.090;-115.340;2023-02-03T08:08:36;2.51;36.77
74540;SHT31;66042;51.090;-115.340;2023-02-03T08:11:04;2.74;36.37
74540;SHT31;66042;51.090;-115.340;2023-02-03T08:13:31;2.83;36.90
74540;SHT31;66042;51.090;-115.340;2023-02-03T08:15:58;2.85;36.63
74540;SHT31;66042;51.090;-115.340;2023-02-03T08:18:25;3.00;35.61
74540;SHT31;66042;51.090;-115.340;2023-02-03T08:20:52;3.22;35.10
74540;SHT31;66042;51.090;-115.340;2023-02-03T08:23:19;3.29;35.89
74540;SHT31;66042;51.090;-115.340;2023-02-03T08:25:50;3.24;35.94
74540;SHT31;66042;51.090;-115.340;2023-02-03T08:28:17;3.23;35.41
74540;SHT31;66042;51.090;-115.340;2023-02-03T08:30:45;3.32;34.94
74540;SHT31;66042;51.090;-115.340;2023-02-03T08:33:12;3.40;34.97
74540;SHT31;66042;51.090;-115.340;2023-02-03T08:35:40;3.46;34.78
74540;SHT31;66042;51.090;-115.340;2023-02-03T08:38:11;3.49;34.59
74540;SHT31;66042;51.090;-115.340;2023-02-03T08:40:39;3.49;35.13
74540;SHT31;66042;51.090;-115.340;2023-02-03T08:43:06;3.47;35.32
74540;SHT31;66042;51.090;-115.340;2023-02-03T08:45:33;3.46;34.66
74540;SHT31;66042;51.090;-115.340;2023-02-03T08:48:00;3.50;34.70
74540;SHT31;66042;51.090;-115.340;2023-02-03T08:50:29;3.53;34.65
74540;SHT31;66042;51.090;-115.340;2023-02-03T08:52:56;3.57;34.56
74540;SHT31;66042;51.090;-115.340;2023-02-03T08:55:23;3.58;34.37
74540;SHT31;66042;51.090;-115.340;2023-02-03T08:57:51;3.63;33.84
74540;SHT31;66042;51.090;-115.340;2023-02-03T09:00:18;3.66;34.25
74540;SHT31;66042;51.090;-115.340;2023-02-03T09:02:46;3.67;34.13
74540;SHT31;66042;51.090;-115.340;2023-02-03T09:05:13;3.66;34.41
74540;SHT31;66042;51.090;-115.340;2023-02-03T09:07:43;3.63;34.56
74540;SHT31;66042;51.090;-115.340;2023-02-03T09:10:10;3.58;34.67
74540;SHT31;66042;51.090;-115.340;2023-02-03T09:12:38;3.57;34.28
74540;SHT31;66042;51.090;-115.340;2023-02-03T09:15:04;3.59;34.57
74540;SHT31;66042;51.090;-115.340;2023-02-03T09:17:32;3.63;34.15
74540;SHT31;66042;51.090;-115.340;2023-02-03T09:19:59;3.66;34.06
74540;SHT31;66042;51.090;-115.340;2023-02-03T09:22:26;3.71;34.15
74540;SHT31;66042;51.090;-115.340;2023-02-03T09:24:53;3.72;33.87
74540;SHT31;66042;51.090;-115.340;2023-02-03T09:27:20;3.72;33.89
74540;SHT31;66042;51.090;-115.340;2023-02-03T09:29:46;3.73;33.53
74540;SHT31;66042;51.090;-115.340;2023-02-03T09:32:13;3.77;33.25
74540;SHT31;66042;51.090;-115.340;2023-02-03T09:34:40;3.83;32.93
74540;SHT31;66042;51.090;-115.340;2023-02-03T09:37:07;3.88;32.52
74540;SHT31;66042;51.090;-115.340;2023-02-03T09:39:34;3.97;31.74
74540;SHT31;66042;51.090;-115.340;2023-02-03T09:42:05;4.07;31.67
74540;SHT31;66042;51.090;-115.340;2023-02-03T09:47:50;4.25;30.59
74540;SHT31;66042;51.090;-115.340;2023-02-03T09:50:23;4.33;30.52
74540;SHT31;66042;51.090;-115.340;2023-02-03T09:52:54;4.40;31.22
74540;SHT31;66042;51.090;-115.340;2023-02-03T09:55:40;4.38;31.46
74540;SHT31;66042;51.090;-115.340;2023-02-03T09:58:11;4.38;29.98
74540;SHT31;66042;51.090;-115.340;2023-02-03T10:00:56;4.43;29.78
74540;SHT31;66042;51.090;-115.340;2023-02-03T10:06:13;4.44;29.90
74540;SHT31;66042;51.090;-115.340;2023-02-03T10:17:38;4.45;27.87
74540;SHT31;66042;51.090;-115.340;2023-02-03T10:22:51;4.61;28.19
74540;SHT31;66042;51.090;-115.340;2023-02-03T10:25:43;4.60;27.59
74540;SHT31;66042;51.090;-115.340;2023-02-03T10:28:23;4.64;27.91
74540;SHT31;66042;51.090;-115.340;2023-02-03T10:31:05;4.70;26.96
74540;SHT31;66042;51.090;-115.340;2023-02-03T10:33:55;4.81;27.88
74540;SHT31;66042;51.090;-115.340;2023-02-03T10:39:48;4.83;27.73
74540;SHT31;66042;51.090;-115.340;2023-02-03T10:42:19;4.88;26.41
74540;SHT31;66042;51.090;-115.340;2023-02-03T10:44:48;4.94;26.78
74540;SHT31;66042;51.090;-115.340;2023-02-03T10:47:24;4.95;26.61
74540;SHT31;66042;51.090;-115.340;2023-02-03T10:50:22;5.01;26.44
74540;SHT31;66042;51.090;-115.340;2023-02-03T10:56:00;5.15;26.92
74540;SHT31;66042;51.090;-115.340;2023-02-03T10:58:30;5.13;27.28
74540;SHT31;66042;51.090;-115.340;2023-02-03T11:01:09;5.09;27.18
74540;SHT31;66042;51.090;-115.340;2023-02-03T11:03:43;5.12;27.18
74540;SHT31;66042;51.090;-115.340;2023-02-03T11:06:22;5.11;27.27
74540;SHT31;66042;51.090;-115.340;2023-02-03T11:08:50;5.11;27.85
74540;SHT31;66042;51.090;-115.340;2023-02-03T11:16:28;5.17;27.06
74540;SHT31;66042;51.090;-115.340;2023-02-03T11:19:03;5.24;27.32
74540;SHT31;66042;51.090;-115.340;2023-02-03T11:21:48;5.26;27.74
74540;SHT31;66042;51.090;-115.340;2023-02-03T11:24:25;5.30;27.49
74540;SHT31;66042;51.090;-115.340;2023-02-03T11:27:03;5.33;27.57
74540;SHT31;66042;51.090;-115.340;2023-02-03T11:29:38;5.34;28.41
74540;SHT31;66042;51.090;-115.340;2023-02-03T11:37:39;5.19;28.88
74540;SHT31;66042;51.090;-115.340;2023-02-03T11:42:45;5.15;27.70
74540;SHT31;66042;51.090;-115.340;2023-02-03T11:45:34;5.21;27.34
74540;SHT31;66042;51.090;-115.340;2023-02-03T12:00:02;5.07;27.93
74540;SHT31;66042;51.090;-115.340;2023-02-03T12:06:00;5.07;27.93
74540;SHT31;66042;51.090;-115.340;2023-02-03T12:09:14;5.02;28.10
74540;SHT31;66042;51.090;-115.340;2023-02-03T12:12:17;4.98;28.50
74540;SHT31;66042;51.090;-115.340;2023-02-03T12:15:25;4.93;28.41
74540;SHT31;66042;51.090;-115.340;2023-02-03T12:27:01;4.88;30.32
74540;SHT31;66042;51.090;-115.340;2023-02-03T12:29:44;4.89;30.03
74540;SHT31;66042;51.090;-115.340;2023-02-03T12:32:49;4.87;30.19
74540;SHT31;66042;51.090;-115.340;2023-02-03T12:41:13;4.67;31.70
74540;SHT31;66042;51.090;-115.340;2023-02-03T12:44:04;4.60;32.24
74540;SHT31;66042;51.090;-115.340;2023-02-03T12:46:52;4.56;32.78
74540;SHT31;66042;51.090;-115.340;2023-02-03T12:52:17;4.58;32.89
74540;SHT31;66042;51.090;-115.340;2023-02-03T13:17:57;4.61;35.02
74540;SHT31;66042;51.090;-115.340;2023-02-03T13:20:46;4.59;35.53
74540;SHT31;66042;51.090;-115.340;2023-02-03T13:23:13;4.59;35.96
74540;SHT31;66042;51.090;-115.340;2023-02-03T13:35:36;4.54;36.28
74540;SHT31;66042;51.090;-115.340;2023-02-03T13:38:19;4.51;36.81
74540;SHT31;66042;51.090;-115.340;2023-02-03T13:44:11;4.53;36.87
74540;SHT31;66042;51.090;-115.340;2023-02-03T13:46:46;4.52;36.85
74540;SHT31;66042;51.090;-115.340;2023-02-03T13:49:26;4.48;36.86
74540;SHT31;66042;51.090;-115.340;2023-02-03T13:51:57;4.45;36.61
74540;SHT31;66042;51.090;-115.340;2023-02-03T13:54:27;4.41;37.25
74540;SHT31;66042;51.090;-115.340;2023-02-03T13:57:03;4.38;37.91
74540;SHT31;66042;51.090;-115.340;2023-02-03T13:59:51;4.41;37.33
74540;SHT31;66042;51.090;-115.340;2023-02-03T14:04:55;4.42;37.41
74540;SHT31;66042;51.090;-115.340;2023-02-03T14:07:37;4.40;38.07
74540;SHT31;66042;51.090;-115.340;2023-02-03T14:10:23;4.37;37.97
74540;SHT31;66042;51.090;-115.340;2023-02-03T14:20:33;4.39;38.53
74540;SHT31;66042;51.090;-115.340;2023-02-03T14:23:07;4.41;37.95
74540;SHT31;66042;51.090;-115.340;2023-02-03T14:25:44;4.39;37.85
74540;SHT31;66042;51.090;-115.340;2023-02-03T14:28:25;4.35;38.32
74540;SHT31;66042;51.090;-115.340;2023-02-03T14:31:15;4.30;38.22
74540;SHT31;66042;51.090;-115.340;2023-02-03T14:50:33;4.21;38.30
74540;SHT31;66042;51.090;-115.340;2023-02-03T14:53:48;4.20;38.46
74540;SHT31;66042;51.090;-115.340;2023-02-03T14:59:52;4.16;38.01
74540;SHT31;66042;51.090;-115.340;2023-02-03T15:11:24;3.97;38.92
74540;SHT31;66042;51.090;-115.340;2023-02-03T15:16:59;3.81;39.00
74540;SHT31;66042;51.090;-115.340;2023-02-03T15:19:37;3.78;38.64
74540;SHT31;66042;51.090;-115.340;2023-02-03T15:22:23;3.74;39.11
74540;SHT31;66042;51.090;-115.340;2023-02-03T15:24:56;3.72;37.59
74540;SHT31;66042;51.090;-115.340;2023-02-03T15:27:38;3.72;38.01
74540;SHT31;66042;51.090;-115.340;2023-02-03T15:30:15;3.74;36.34
74540;SHT31;66042;51.090;-115.340;2023-02-03T15:33:03;3.86;36.58
74540;SHT31;66042;51.090;-115.340;2023-02-03T15:35:36;3.88;37.29
74540;SHT31;66042;51.090;-115.340;2023-02-03T15:38:08;3.85;37.37
74540;SHT31;66042;51.090;-115.340;2023-02-03T15:40:55;3.81;36.92
74540;SHT31;66042;51.090;-115.340;2023-02-03T15:43:34;3.78;37.01
74540;SHT31;66042;51.090;-115.340;2023-02-03T15:46:15;3.76;37.19
74540;SHT31;66042;51.090;-115.340;2023-02-03T15:51:33;3.69;37.20
74540;SHT31;66042;51.090;-115.340;2023-02-03T15:54:17;3.67;36.24
74540;SHT31;66042;51.090;-115.340;2023-02-03T15:59:37;3.78;34.72
74540;SHT31;66042;51.090;-115.340;2023-02-03T16:05:18;3.92;33.84
74540;SHT31;66042;51.090;-115.340;2023-02-03T16:08:24;4.00;34.37
74540;SHT31;66042;51.090;-115.340;2023-02-03T16:10:59;4.01;34.20
74540;SHT31;66042;51.090;-115.340;2023-02-03T16:13:45;4.08;34.04
74540;SHT31;66042;51.090;-115.340;2023-02-03T16:16:20;4.11;33.67
74540;SHT31;66042;51.090;-115.340;2023-02-03T16:19:15;4.17;33.06
74540;SHT31;66042;51.090;-115.340;2023-02-03T16:21:51;4.27;32.72
74540;SHT31;66042;51.090;-115.340;2023-02-03T16:29:53;4.48;33.15
74540;SHT31;66042;51.090;-115.340;2023-02-03T16:36:13;4.55;32.76
74540;SHT31;66042;51.090;-115.340;2023-02-03T16:39:00;4.59;32.28
74540;SHT31;66042;51.090;-115.340;2023-02-03T16:41:54;4.71;32.03
74540;SHT31;66042;51.090;-115.340;2023-02-03T16:44:44;4.79;32.15
74540;SHT31;66042;51.090;-115.340;2023-02-03T16:47:30;4.84;32.32
74540;SHT31;66042;51.090;-115.340;2023-02-03T16:50:19;4.88;32.66
74540;SHT31;66042;51.090;-115.340;2023-02-03T16:53:17;4.95;31.29
74540;SHT31;66042;51.090;-115.340;2023-02-03T16:55:49;5.03;31.79
74540;SHT31;66042;51.090;-115.340;2023-02-03T16:58:18;5.09;32.06
74540;SHT31;66042;51.090;-115.340;2023-02-03T17:00:46;5.10;32.43
74540;SHT31;66042;51.090;-115.340;2023-02-03T17:03:20;5.11;31.86
74540;SHT31;66042;51.090;-115.340;2023-02-03T17:05:50;5.14;31.99
74540;SHT31;66042;51.090;-115.340;2023-02-03T17:08:20;5.14;31.93
74540;SHT31;66042;51.090;-115.340;2023-02-03T17:10:50;5.24;31.45
74540;SHT31;66042;51.090;-115.340;2023-02-03T17:13:18;5.30;31.42
74540;SHT31;66042;51.090;-115.340;2023-02-03T17:15:48;5.39;31.32
74540;SHT31;66042;51.090;-115.340;2023-02-03T17:18:17;5.46;31.34
74540;SHT31;66042;51.090;-115.340;2023-02-03T17:20:45;5.53;31.17
74540;SHT31;66042;51.090;-115.340;2023-02-03T17:23:12;5.60;31.21
74540;SHT31;66042;51.090;-115.340;2023-02-03T17:25:42;5.70;31.09
74540;SHT31;66042;51.090;-115.340;2023-02-03T17:28:11;5.79;30.71
74540;SHT31;66042;51.090;-115.340;2023-02-03T17:30:38;5.88;30.86
74540;SHT31;66042;51.090;-115.340;2023-02-03T17:33:06;5.96;30.78
74540;SHT31;66042;51.090;-115.340;2023-02-03T17:35:40;6.05;30.74
74540;SHT31;66042;51.090;-115.340;2023-02-03T17:38:10;6.17;30.21
74540;SHT31;66042;51.090;-115.340;2023-02-03T17:40:41;6.31;30.32
74540;SHT31;66042;51.090;-115.340;2023-02-03T17:43:09;6.39;30.01
74540;SHT31;66042;51.090;-115.340;2023-02-03T17:45:40;6.44;29.89
74540;SHT31;66042;51.090;-115.340;2023-02-03T17:48:07;6.49;29.90
74540;SHT31;66042;51.090;-115.340;2023-02-03T17:50:34;6.55;29.85
74540;SHT31;66042;51.090;-115.340;2023-02-03T17:53:02;6.63;29.52
74540;SHT31;66042;51.090;-115.340;2023-02-03T17:55:30;6.69;30.16
74540;SHT31;66042;51.090;-115.340;2023-02-03T17:57:58;6.73;29.10
74540;SHT31;66042;51.090;-115.340;2023-02-03T18:00:25;6.81;28.89
74540;SHT31;66042;51.090;-115.340;2023-02-03T18:02:53;6.90;29.45
74540;SHT31;66042;51.090;-115.340;2023-02-03T18:05:20;6.98;29.25
74540;SHT31;66042;51.090;-115.340;2023-02-03T18:07:47;7.03;29.00
74540;SHT31;66042;51.090;-115.340;2023-02-03T18:10:14;7.09;29.18
74540;SHT31;66042;51.090;-115.340;2023-02-03T18:12:41;7.13;27.90
74540;SHT31;66042;51.090;-115.340;2023-02-03T18:15:08;7.24;27.85
74540;SHT31;66042;51.090;-115.340;2023-02-03T18:17:35;7.37;28.38
74540;SHT31;66042;51.090;-115.340;2023-02-03T18:20:02;7.49;28.11
74540;SHT31;66042;51.090;-115.340;2023-02-03T18:22:30;7.59;27.84
74540;SHT31;66042;51.090;-115.340;2023-02-03T18:24:59;7.75;28.08
74540;SHT31;66042;51.090;-115.340;2023-02-03T18:27:26;8.14;27.31
74540;SHT31;66042;51.090;-115.340;2023-02-03T18:29:52;8.65;26.39
74540;SHT31;66042;51.090;-115.340;2023-02-03T18:32:21;8.86;26.34
74540;SHT31;66042;51.090;-115.340;2023-02-03T18:34:48;8.84;26.53
74540;SHT31;66042;51.090;-115.340;2023-02-03T18:37:15;8.79;26.69
74540;SHT31;66042;51.090;-115.340;2023-02-03T18:39:42;8.60;26.42
74540;SHT31;66042;51.090;-115.340;2023-02-03T18:42:09;8.35;27.05
74540;SHT31;66042;51.090;-115.340;2023-02-03T18:44:36;8.29;27.03
74540;SHT31;66042;51.090;-115.340;2023-02-03T18:47:05;8.52;25.96
74540;SHT31;66042;51.090;-115.340;2023-02-03T18:49:34;9.93;24.92